Metar Cercanos

 

LEPA - Palma De Mallorc, Spain
Distance from station: ONO 38km
Actualización: 27/03/2017 00:30
Despejado
Despejado
 Viento del ENE
Viento: ENE 11 km/h
Temperatura: 13°C
Rocío: 11°C
Humedad: 88%
Barómetro: 1018 hPa
Resumen: Despejado
Visibility: greater than 10 km
2017/03/26 22:30 LEPA 262230Z 07006KT CAVOK 13/11 Q1018 NOSIG
LEMH - Mahon/Menorca Is, Spain
Distance from station: ENE 105km
Actualización: 27/03/2017 00:30
Few Clouds
Few Clouds
 Viento del E
Viento: E 17 km/h
Temperatura: 12°C
Rocío: 11°C
Humedad: 94%
Barómetro: 1019 hPa
Clouds: Few Clouds
Visibility: 10 km
Cloud details: Few Clouds 762 m
2017/03/26 22:30 LEMH 262230Z 09009KT 9999 FEW025 12/11 Q1019
 
LEIB - Ibiza/Es Codola, Spain
Distance from station: OSO 165km
Actualización: 27/03/2017 00:30
Muy nuboso
Muy nuboso
 Viento del E
Viento: E 22 km/h
Temperatura: 15°C
Rocío: 13°C
Humedad: 88%
Barómetro: 1016 hPa
Clouds: Muy nuboso
Visibility: 10 km
Cloud details: Muy nuboso 213 m
2017/03/26 22:30 LEIB 262230Z 09012KT 9999 BKN007 15/13 Q1016 NOSIG
LEBL - Barcelona Airpor, Spain
Distance from station: NNO 225km
Actualización: 27/03/2017 00:30
Despejado
Despejado
 Viento del NNO
Viento: NNO 9 km/h
Temperatura: 11°C
Rocío: 8°C
Humedad: 82%
Barómetro: 1018 hPa
Resumen: Despejado
Visibility: greater than 10 km
2017/03/26 22:30 LEBL 262230Z 34005KT CAVOK 11/08 Q1018 NOSIG
 
LEVC - Valencia (civ/Mi, Spain
Distance from station: NO 188km
Actualización: 27/03/2017 00:30
Muy nuboso
Muy nuboso
 Viento del NNE
Viento: NNE 9 km/h
Temperatura: 14°C
Rocío: 10°C
Humedad: 77%
Barómetro: 1017 hPa
Clouds: Muy nuboso
Visibility: 10 km
Cloud details: Few Clouds 762 m
Muy nuboso 1219 m
2017/03/26 22:30 LEVC 262230Z 02005KT 340V050 9999 FEW025 BKN040 14/10 Q1017 NOSIG
LEGE - Gerona/Costa Bra, Spain
Distance from station: N 276km
Actualización: 27/03/2017 00:30
Despejado
Despejado
 Viento del calm
Viento: Calma
Temperatura: 7°C
Rocío: 6°C
Humedad: 93%
Barómetro: 1019 hPa
Resumen: Despejado
Visibility: greater than 10 km
2017/03/26 22:30 LEGE 262230Z 00000KT CAVOK 07/06 Q1019
 
LEAL - Alicante/El Alte, Spain
Distance from station: OSO 344km
Actualización: 27/03/2017 00:30
Few Clouds
Few Clouds
 Viento del ENE
Viento: ENE 20 km/h
Temperatura: 15°C
Rocío: 12°C
Humedad: 82%
Barómetro: 1015 hPa
Clouds: Few Clouds
Visibility: 10 km
Cloud details: Few Clouds 366 m
2017/03/26 22:30 LEAL 262230Z 07011KT 9999 FEW012 15/12 Q1015 NOSIG
LEAM - Almeria Airport, Spain
Distance from station: SSO 56km
Actualización: 27/03/2017 00:30
Despejado
Despejado
 Viento del OSO
Viento: OSO 19 km/h
Temperatura: 14°C
Rocío: 11°C
Humedad: 82%
Barómetro: 1017 hPa
Resumen: Despejado
Visibility: greater than 10 km
2017/03/26 22:30 LEAM 262230Z 25010KT CAVOK 14/11 Q1017
 
LEZG - Zaragoza (mil/Ci, Spain
Distance from station: NO 431km
Actualización: 27/03/2017 00:30
Few Clouds
Few Clouds
 Viento del ESE
Viento: ESE 28 km/h
Temperatura: 12°C
Rocío: 8°C
Humedad: 77%
Barómetro: 1015 hPa
Clouds: Few Clouds
Visibility: 10 km
Cloud details: Few Clouds 1219 m
2017/03/26 22:30 LEZG 262230Z 12015KT 9999 FEW040 12/08 Q1015
LEMD - Madrid/Barajas, Spain
Distance from station: ONO 234km
Actualización: 27/03/2017 00:30
Few Clouds
Few Clouds
 Viento del SE
Viento: SE 20 km/h
Temperatura: 11°C
Rocío: 5°C
Humedad: 67%
Barómetro: 1012 hPa
Clouds: Few Clouds
Visibility: 10 km
Cloud details: Few Clouds 2134 m
2017/03/26 22:30 LEMD 262230Z 14011KT 9999 FEW070 11/05 Q1012 NOSIG
 
LEGR - Granada Airport, Spain
Distance from station: OSO 62km
Actualización: 27/03/2017 00:30
Lluvia débil, Muy nuboso
Lluvia débil, Muy nuboso
 Viento del SSO
Viento: SSO 15 km/h
Temperatura: 8°C
Sensación frio: 5°C
Rocío: 7°C
Humedad: 93%
Barómetro: 1018 hPa
Resumen: Lluvia débil
Clouds: Muy nuboso
Visibility: 10 km
Cloud details: Muy nuboso 1402 m
Muy nuboso 1737 m
2017/03/26 22:30 LEGR 262230Z AUTO 21008KT 160V240 9999 -RA BKN046 BKN057 08/07 Q1018
LEMG - Malaga (civ/Mil), Spain
Distance from station: OSO 227km
Actualización: 27/03/2017 00:30
Muy nuboso
Muy nuboso
 Viento del ESE
Viento: ESE 9 km/h
Temperatura: 12°C
Rocío: 8°C
Humedad: 77%
Barómetro: 1018 hPa
Clouds: Muy nuboso
Visibility: 10 km
Cloud details: Few Clouds 549 m
Parcialmente nuboso 1219 m
Muy nuboso 1829 m
2017/03/26 22:30 LEMG 262230Z 12005KT 080V190 9999 FEW018 SCT040 BKN060 12/08 Q1018 NOSIG
 
LEZL - Sevilla (civ/Mil, Spain
Distance from station: S 318km
Actualización: 27/03/2017 00:30
Parcialmente nuboso
Parcialmente nuboso
 Viento del SSO
Viento: SSO 20 km/h
Temperatura: 12°C
Rocío: 10°C
Humedad: 88%
Barómetro: 1015 hPa
Clouds: Parcialmente nuboso
Visibility: 10 km
Cloud details: Few Clouds 457 m
Parcialmente nuboso 1463 m
2017/03/26 22:30 LEZL 262230Z 21011KT 190V250 9999 FEW015 SCT048 12/10 Q1015 RERA NOSIG
LEVT - Vitoria, Spain
Distance from station: NO 226km
Actualización: 27/03/2017 00:30
Parcialmente nuboso
Parcialmente nuboso
 Viento del ENE
Viento: ENE 13 km/h
Temperatura: 10°C
Sensación frio: 8°C
Rocío: 5°C
Humedad: 71%
Barómetro: 1014 hPa
Clouds: Parcialmente nuboso
Visibility: 10 km
Cloud details: Parcialmente nuboso 1067 m
2017/03/26 22:30 LEVT 262230Z 07007KT 9999 SCT035 10/05 Q1014
 
LEBB - Bilbao/Sondica, Spain
Distance from station: NNO 235km
Actualización: 27/03/2017 00:30
Few Clouds
Few Clouds
 Viento del E
Viento: E 11 km/h
Temperatura: 14°C
Rocío: 5°C
Humedad: 55%
Barómetro: 1012 hPa
Clouds: Few Clouds
Visibility: 10 km
Cloud details: Few Clouds 1524 m
2017/03/26 22:30 LEBB 262230Z AUTO 09006KT 060V140 9999 FEW050 14/05 Q1012
LESO - San Sebastian/Fu, Spain
Distance from station: N 231km
Actualización: 27/03/2017 00:30
Despejado
Despejado
 Viento del SSO
Viento: SSO 7 km/h
Temperatura: 11°C
Rocío: 6°C
Humedad: 72%
Barómetro: 1013 hPa
Clouds: Despejado
Visibility: 10 km
2017/03/26 22:30 LESO 262230Z AUTO 21004KT 9999 NCD 11/06 Q1013
 
LEVD - Valladolid(Mil/C, Spain
Distance from station: ONO 239km
Actualización: 26/03/2017 21:30
NOT Current
Few Clouds
Few Clouds
 Viento del ESE
Viento: ESE 15 km/h
Temperatura: 8°C
Sensación frio: 5°C
Rocío: 2°C
Humedad: 66%
Barómetro: 1010 hPa
Clouds: Few Clouds
Visibility: 10 km
Cloud details: Few Clouds 1494 m
2017/03/26 19:30 LEVD 261930Z 12008KT 9999 FEW049 08/02 Q1010
LESA - Salamanca (civ/M, Spain
Distance from station: ONO 349km
Actualización: 26/03/2017 20:00
NOT Current
Few Clouds
Few Clouds
 Viento del SE
Viento: SE 24 km/h
Temperatura: 10°C
Sensación frio: 7°C
Rocío: 3°C
Humedad: 62%
Barómetro: 1008 hPa
Clouds: Few Clouds
Visibility: 10 km
Cloud details: Few Clouds 1372 m
2017/03/26 18:00 LESA 261800Z 14013KT 9999 FEW045 10/03 Q1008
 
LEXJ - Santander/Paraya, Spain
Distance from station: NNO 247km
Actualización: 27/03/2017 00:30
Despejado
Despejado
 Viento del ESE
Viento: ESE 19 km/h
Temperatura: 15°C
Rocío: 7°C
Humedad: 59%
Barómetro: 1010 hPa
Clouds: Despejado
Visibility: 9 km
2017/03/26 22:30 LEXJ 262230Z AUTO 12010KT 090V150 9000 NCD 15/07 Q1010
LEAS - Asturias/Aviles, Spain
Distance from station: NO 214km
Actualización: 27/03/2017 00:30

 Viento del ESE
Viento: ESE 7 km/h
Visibility: 10 km
2017/03/26 22:30 LEAS 262230Z AUTO 11004KT 080V140 9999 4300 NSC 12/05 Q1008
 
LECO - La Coruna/Alvedr, Spain
Distance from station: ONO 222km
Actualización: 27/03/2017 00:30
Lluvia débil, Parcialmente nuboso
Lluvia débil, Parcialmente nuboso
 Viento del calm
Viento: Calma
Temperatura: 9°C
Rocío: 8°C
Humedad: 94%
Barómetro: 1007 hPa
Resumen: Lluvia débil
Clouds: Parcialmente nuboso
Visibility: 10 km
Cloud details: Parcialmente nuboso 1372 m
2017/03/26 22:30 LECO 262230Z 00000KT 9999 -RA SCT045 09/08 Q1007 TEMPO RA
LEVX - Vigo/Peinador, Spain
Distance from station: O 214km
Actualización: 27/03/2017 00:00
Lluvia débil, Muy nuboso
Lluvia débil, Muy nuboso
 Viento del varies
Viento: varies 4 km/h
Temperatura: 9°C
Rocío: 7°C
Humedad: 87%
Barómetro: 1007 hPa
Resumen: Lluvia débil
Clouds: Muy nuboso
Visibility: 10 km
Cloud details: Parcialmente nuboso 1036 m
Muy nuboso 1219 m
2017/03/26 22:00 LEVX 262200Z VRB02KT 9999 -RA SCT034 BKN040 09/07 Q1007 TEMPO RA